<?xml version="1.0" encoding="UTF-8" standalone="no" ?>
<gpx xmlns="http://www.topografix.com/GPX/1/1" xmlns:xsi="http://www.w3.org/2001/XMLSchema-instance" xsi:schemaLocation="http://www.topografix.com/GPX/1/1 http://www.topografix.com/GPX/1/1/gpx.xsd" version="1.1" creator="VisuGPX - https://www.visugpx.com">
  <metadata>
    <name>20200528 - Sortie VTT</name>
    <desc><![CDATA[On a fait une boucle pour passer 2 fois dans la foret]]></desc>
  </metadata>
  <trk>
    <name><![CDATA[2020-05-28 16:10:18]]></name>
    <trkseg>
      <trkpt lat="50.12767" lon="3.6835">
        <ele>135.2</ele>
        <time>2020-05-28T13:31:47Z</time>
      </trkpt>
      <trkpt lat="50.12768" lon="3.68353">
        <ele>135.2</ele>
        <time>2020-05-28T13:31:48Z</time>
      </trkpt>
      <trkpt lat="50.12787" lon="3.68408">
        <ele>135.68</ele>
        <time>2020-05-28T13:32:02Z</time>
      </trkpt>
      <trkpt lat="50.128" lon="3.68446">
        <ele>135.68</ele>
        <time>2020-05-28T13:32:15Z</time>
      </trkpt>
      <trkpt lat="50.12802" lon="3.68447">
        <ele>135.68</ele>
        <time>2020-05-28T13:32:16Z</time>
      </trkpt>
      <trkpt lat="50.12805" lon="3.68446">
        <ele>135.68</ele>
        <time>2020-05-28T13:32:17Z</time>
      </trkpt>
      <trkpt lat="50.12807" lon="3.68444">
        <ele>135.68</ele>
        <time>2020-05-28T13:32:18Z</time>
      </trkpt>
      <trkpt lat="50.12809" lon="3.68443">
        <ele>135.68</ele>
        <time>2020-05-28T13:32:19Z</time>
      </trkpt>
      <trkpt lat="50.12847" lon="3.68399">
        <ele>137.13</ele>
        <time>2020-05-28T13:32:35Z</time>
      </trkpt>
      <trkpt lat="50.12853" lon="3.68393">
        <ele>137.13</ele>
        <time>2020-05-28T13:32:37Z</time>
      </trkpt>
      <trkpt lat="50.12856" lon="3.68393">
        <ele>137.61</ele>
        <time>2020-05-28T13:32:38Z</time>
      </trkpt>
      <trkpt lat="50.12858" lon="3.68395">
        <ele>138.09</ele>
        <time>2020-05-28T13:32:39Z</time>
      </trkpt>
      <trkpt lat="50.1286" lon="3.68398">
        <ele>138.57</ele>
        <time>2020-05-28T13:32:40Z</time>
      </trkpt>
      <trkpt lat="50.12862" lon="3.684">
        <ele>138.57</ele>
        <time>2020-05-28T13:32:41Z</time>
      </trkpt>
      <trkpt lat="50.12864" lon="3.68403">
        <ele>138.57</ele>
        <time>2020-05-28T13:32:42Z</time>
      </trkpt>
      <trkpt lat="50.12866" lon="3.68406">
        <ele>138.57</ele>
        <time>2020-05-28T13:32:43Z</time>
      </trkpt>
      <trkpt lat="50.12889" lon="3.68462">
        <ele>138.57</ele>
        <time>2020-05-28T13:32:59Z</time>
      </trkpt>
      <trkpt lat="50.12916" lon="3.68545">
        <ele>139.05</ele>
        <time>2020-05-28T13:33:18Z</time>
      </trkpt>
      <trkpt lat="50.12921" lon="3.68562">
        <ele>137.61</ele>
        <time>2020-05-28T13:33:22Z</time>
      </trkpt>
      <trkpt lat="50.12942" lon="3.68634">
        <ele>137.13</ele>
        <time>2020-05-28T13:33:38Z</time>
      </trkpt>
      <trkpt lat="50.12925" lon="3.68668">
        <ele>137.13</ele>
        <time>2020-05-28T13:33:47Z</time>
      </trkpt>
      <trkpt lat="50.12896" lon="3.68709">
        <ele>136.16</ele>
        <time>2020-05-28T13:33:56Z</time>
      </trkpt>
      <trkpt lat="50.12891" lon="3.68713">
        <ele>136.16</ele>
        <time>2020-05-28T13:33:57Z</time>
      </trkpt>
      <trkpt lat="50.12886" lon="3.68715">
        <ele>135.68</ele>
        <time>2020-05-28T13:33:58Z</time>
      </trkpt>
      <trkpt lat="50.12881" lon="3.68714">
        <ele>135.68</ele>
        <time>2020-05-28T13:33:59Z</time>
      </trkpt>
      <trkpt lat="50.12876" lon="3.6871">
        <ele>135.68</ele>
        <time>2020-05-28T13:34:00Z</time>
      </trkpt>
      <trkpt lat="50.12872" lon="3.68705">
        <ele>135.68</ele>
        <time>2020-05-28T13:34:01Z</time>
      </trkpt>
      <trkpt lat="50.12814" lon="3.68632">
        <ele>134.72</ele>
        <time>2020-05-28T13:34:17Z</time>
      </trkpt>
      <trkpt lat="50.12807" lon="3.68622">
        <ele>134.72</ele>
        <time>2020-05-28T13:34:20Z</time>
      </trkpt>
      <trkpt lat="50.12807" lon="3.68619">
        <ele>134.72</ele>
        <time>2020-05-28T13:34:21Z</time>
      </trkpt>
      <trkpt lat="50.12807" lon="3.68615">
        <ele>134.72</ele>
        <time>2020-05-28T13:34:22Z</time>
      </trkpt>
      <trkpt lat="50.12807" lon="3.68612">
        <ele>134.72</ele>
        <time>2020-05-28T13:34:23Z</time>
      </trkpt>
      <trkpt lat="50.12807" lon="3.68608">
        <ele>134.72</ele>
        <time>2020-05-28T13:34:24Z</time>
      </trkpt>
      <trkpt lat="50.12808" lon="3.68603">
        <ele>134.72</ele>
        <time>2020-05-28T13:34:25Z</time>
      </trkpt>
      <trkpt lat="50.12809" lon="3.68598">
        <ele>134.72</ele>
        <time>2020-05-28T13:34:26Z</time>
      </trkpt>
      <trkpt lat="50.1281" lon="3.68592">
        <ele>134.72</ele>
        <time>2020-05-28T13:34:27Z</time>
      </trkpt>
      <trkpt lat="50.12811" lon="3.68587">
        <ele>134.72</ele>
        <time>2020-05-28T13:34:28Z</time>
      </trkpt>
      <trkpt lat="50.12817" lon="3.68564">
        <ele>135.68</ele>
        <time>2020-05-28T13:34:32Z</time>
      </trkpt>
      <trkpt lat="50.12827" lon="3.68521">
        <ele>137.61</ele>
        <time>2020-05-28T13:34:38Z</time>
      </trkpt>
      <trkpt lat="50.12841" lon="3.6845">
        <ele>140.97</ele>
        <time>2020-05-28T13:34:48Z</time>
      </trkpt>
      <trkpt lat="50.12871" lon="3.6838">
        <ele>143.85</ele>
        <time>2020-05-28T13:35:01Z</time>
      </trkpt>
      <trkpt lat="50.12877" lon="3.68371">
        <ele>143.85</ele>
        <time>2020-05-28T13:35:03Z</time>
      </trkpt>
      <trkpt lat="50.12934" lon="3.68325">
        <ele>144.34</ele>
        <time>2020-05-28T13:35:17Z</time>
      </trkpt>
      <trkpt lat="50.12964" lon="3.68316">
        <ele>142.41</ele>
        <time>2020-05-28T13:35:22Z</time>
      </trkpt>
      <trkpt lat="50.1297" lon="3.68316">
        <ele>142.41</ele>
        <time>2020-05-28T13:35:23Z</time>
      </trkpt>
      <trkpt lat="50.12975" lon="3.68316">
        <ele>142.41</ele>
        <time>2020-05-28T13:35:24Z</time>
      </trkpt>
      <trkpt lat="50.12981" lon="3.68315">
        <ele>142.41</ele>
        <time>2020-05-28T13:35:25Z</time>
      </trkpt>
      <trkpt lat="50.12986" lon="3.68313">
        <ele>142.41</ele>
        <time>2020-05-28T13:35:26Z</time>
      </trkpt>
      <trkpt lat="50.1299" lon="3.68313">
        <ele>142.41</ele>
        <time>2020-05-28T13:35:27Z</time>
      </trkpt>
      <trkpt lat="50.12994" lon="3.68313">
        <ele>142.41</ele>
        <time>2020-05-28T13:35:28Z</time>
      </trkpt>
      <trkpt lat="50.12998" lon="3.68312">
        <ele>142.41</ele>
        <time>2020-05-28T13:35:29Z</time>
      </trkpt>
      <trkpt lat="50.13039" lon="3.68297">
        <ele>145.78</ele>
        <time>2020-05-28T13:35:42Z</time>
      </trkpt>
      <trkpt lat="50.13075" lon="3.68282">
        <ele>148.18</ele>
        <time>2020-05-28T13:35:55Z</time>
      </trkpt>
      <trkpt lat="50.13108" lon="3.68267">
        <ele>149.62</ele>
        <time>2020-05-28T13:36:08Z</time>
      </trkpt>
      <trkpt lat="50.13125" lon="3.68258">
        <ele>151.06</ele>
        <time>2020-05-28T13:36:15Z</time>
      </trkpt>
      <trkpt lat="50.13128" lon="3.68258">
        <ele>151.06</ele>
        <time>2020-05-28T13:36:16Z</time>
      </trkpt>
      <trkpt lat="50.13131" lon="3.68256">
        <ele>152.03</ele>
        <time>2020-05-28T13:36:17Z</time>
      </trkpt>
      <trkpt lat="50.13134" lon="3.68254">
        <ele>152.03</ele>
        <time>2020-05-28T13:36:18Z</time>
      </trkpt>
      <trkpt lat="50.13137" lon="3.68252">
        <ele>152.03</ele>
        <time>2020-05-28T13:36:19Z</time>
      </trkpt>
      <trkpt lat="50.13175" lon="3.68218">
        <ele>154.43</ele>
        <time>2020-05-28T13:36:36Z</time>
      </trkpt>
      <trkpt lat="50.13214" lon="3.68176">
        <ele>156.83</ele>
        <time>2020-05-28T13:36:55Z</time>
      </trkpt>
      <trkpt lat="50.13249" lon="3.6814">
        <ele>158.27</ele>
        <time>2020-05-28T13:37:13Z</time>
      </trkpt>
      <trkpt lat="50.13286" lon="3.68104">
        <ele>159.72</ele>
        <time>2020-05-28T13:37:30Z</time>
      </trkpt>
      <trkpt lat="50.1332" lon="3.6807">
        <ele>161.16</ele>
        <time>2020-05-28T13:37:44Z</time>
      </trkpt>
      <trkpt lat="50.1336" lon="3.68025">
        <ele>162.12</ele>
        <time>2020-05-28T13:37:59Z</time>
      </trkpt>
      <trkpt lat="50.13409" lon="3.6798">
        <ele>163.08</ele>
        <time>2020-05-28T13:38:16Z</time>
      </trkpt>
      <trkpt lat="50.13459" lon="3.67967">
        <ele>163.08</ele>
        <time>2020-05-28T13:38:32Z</time>
      </trkpt>
      <trkpt lat="50.13516" lon="3.67955">
        <ele>163.56</ele>
        <time>2020-05-28T13:38:50Z</time>
      </trkpt>
      <trkpt lat="50.1357" lon="3.67935">
        <ele>164.52</ele>
        <time>2020-05-28T13:39:06Z</time>
      </trkpt>
      <trkpt lat="50.13603" lon="3.67925">
        <ele>163.08</ele>
        <time>2020-05-28T13:39:16Z</time>
      </trkpt>
      <trkpt lat="50.13615" lon="3.67924">
        <ele>163.08</ele>
        <time>2020-05-28T13:39:19Z</time>
      </trkpt>
      <trkpt lat="50.13624" lon="3.67921">
        <ele>163.08</ele>
        <time>2020-05-28T13:39:21Z</time>
      </trkpt>
      <trkpt lat="50.13627" lon="3.67918">
        <ele>163.08</ele>
        <time>2020-05-28T13:39:22Z</time>
      </trkpt>
      <trkpt lat="50.13631" lon="3.67915">
        <ele>163.08</ele>
        <time>2020-05-28T13:39:23Z</time>
      </trkpt>
      <trkpt lat="50.13635" lon="3.67914">
        <ele>163.08</ele>
        <time>2020-05-28T13:39:24Z</time>
      </trkpt>
      <trkpt lat="50.13639" lon="3.67912">
        <ele>163.08</ele>
        <time>2020-05-28T13:39:25Z</time>
      </trkpt>
      <trkpt lat="50.13643" lon="3.67911">
        <ele>163.08</ele>
        <time>2020-05-28T13:39:26Z</time>
      </trkpt>
      <trkpt lat="50.13646" lon="3.67909">
        <ele>163.08</ele>
        <time>2020-05-28T13:39:27Z</time>
      </trkpt>
      <trkpt lat="50.1365" lon="3.67908">
        <ele>163.08</ele>
        <time>2020-05-28T13:39:28Z</time>
      </trkpt>
      <trkpt lat="50.13653" lon="3.67906">
        <ele>163.08</ele>
        <time>2020-05-28T13:39:29Z</time>
      </trkpt>
      <trkpt lat="50.13656" lon="3.67905">
        <ele>163.08</ele>
        <time>2020-05-28T13:39:30Z</time>
      </trkpt>
      <trkpt lat="50.13702" lon="3.67886">
        <ele>162.6</ele>
        <time>2020-05-28T13:39:45Z</time>
      </trkpt>
      <trkpt lat="50.13743" lon="3.67869">
        <ele>162.6</ele>
        <time>2020-05-28T13:40:00Z</time>
      </trkpt>
      <trkpt lat="50.13793" lon="3.67848">
        <ele>162.6</ele>
        <time>2020-05-28T13:40:19Z</time>
      </trkpt>
      <trkpt lat="50.13851" lon="3.67826">
        <ele>163.56</ele>
        <time>2020-05-28T13:40:40Z</time>
      </trkpt>
      <trkpt lat="50.13895" lon="3.67823">
        <ele>164.04</ele>
        <time>2020-05-28T13:40:55Z</time>
      </trkpt>
      <trkpt lat="50.13953" lon="3.67828">
        <ele>164.52</ele>
        <time>2020-05-28T13:41:16Z</time>
      </trkpt>
      <trkpt lat="50.13998" lon="3.67816">
        <ele>165</ele>
        <time>2020-05-28T13:41:32Z</time>
      </trkpt>
      <trkpt lat="50.14007" lon="3.67812">
        <ele>163.56</ele>
        <time>2020-05-28T13:41:35Z</time>
      </trkpt>
      <trkpt lat="50.14064" lon="3.67783">
        <ele>162.6</ele>
        <time>2020-05-28T13:41:51Z</time>
      </trkpt>
      <trkpt lat="50.14105" lon="3.67757">
        <ele>161.16</ele>
        <time>2020-05-28T13:42:03Z</time>
      </trkpt>
      <trkpt lat="50.14158" lon="3.677">
        <ele>160.2</ele>
        <time>2020-05-28T13:42:19Z</time>
      </trkpt>
      <trkpt lat="50.14188" lon="3.67667">
        <ele>159.72</ele>
        <time>2020-05-28T13:42:30Z</time>
      </trkpt>
      <trkpt lat="50.14222" lon="3.6763">
        <ele>159.24</ele>
        <time>2020-05-28T13:42:44Z</time>
      </trkpt>
      <trkpt lat="50.14241" lon="3.67649">
        <ele>159.24</ele>
        <time>2020-05-28T13:42:53Z</time>
      </trkpt>
      <trkpt lat="50.14239" lon="3.67688">
        <ele>159.24</ele>
        <time>2020-05-28T13:43:04Z</time>
      </trkpt>
      <trkpt lat="50.14239" lon="3.67692">
        <ele>159.24</ele>
        <time>2020-05-28T13:43:20Z</time>
      </trkpt>
      <trkpt lat="50.14243" lon="3.67696">
        <ele>159.24</ele>
        <time>2020-05-28T13:43:41Z</time>
      </trkpt>
      <trkpt lat="50.14244" lon="3.67722">
        <ele>159.24</ele>
        <time>2020-05-28T13:43:49Z</time>
      </trkpt>
      <trkpt lat="50.14244" lon="3.67764">
        <ele>159.24</ele>
        <time>2020-05-28T13:44:02Z</time>
      </trkpt>
      <trkpt lat="50.14244" lon="3.67766">
        <ele>159.24</ele>
        <time>2020-05-28T13:44:03Z</time>
      </trkpt>
      <trkpt lat="50.14251" lon="3.6779">
        <ele>160.68</ele>
        <time>2020-05-28T13:44:13Z</time>
      </trkpt>
      <trkpt lat="50.14254" lon="3.67829">
        <ele>160.68</ele>
        <time>2020-05-28T13:44:24Z</time>
      </trkpt>
      <trkpt lat="50.14255" lon="3.67868">
        <ele>161.16</ele>
        <time>2020-05-28T13:44:37Z</time>
      </trkpt>
      <trkpt lat="50.14258" lon="3.67915">
        <ele>162.6</ele>
        <time>2020-05-28T13:44:50Z</time>
      </trkpt>
      <trkpt lat="50.1426" lon="3.67967">
        <ele>163.08</ele>
        <time>2020-05-28T13:45:03Z</time>
      </trkpt>
      <trkpt lat="50.14259" lon="3.68002">
        <ele>163.56</ele>
        <time>2020-05-28T13:45:14Z</time>
      </trkpt>
      <trkpt lat="50.14261" lon="3.68025">
        <ele>164.04</ele>
        <time>2020-05-28T13:45:20Z</time>
      </trkpt>
      <trkpt lat="50.14267" lon="3.68075">
        <ele>164.04</ele>
        <time>2020-05-28T13:45:33Z</time>
      </trkpt>
      <trkpt lat="50.14268" lon="3.68116">
        <ele>164.52</ele>
        <time>2020-05-28T13:45:43Z</time>
      </trkpt>
      <trkpt lat="50.14272" lon="3.6816">
        <ele>164.52</ele>
        <time>2020-05-28T13:45:55Z</time>
      </trkpt>
      <trkpt lat="50.1427" lon="3.68174">
        <ele>164.52</ele>
        <time>2020-05-28T13:46:01Z</time>
      </trkpt>
      <trkpt lat="50.14276" lon="3.68239">
        <ele>165.48</ele>
        <time>2020-05-28T13:46:18Z</time>
      </trkpt>
      <trkpt lat="50.1428" lon="3.68291">
        <ele>165.96</ele>
        <time>2020-05-28T13:46:32Z</time>
      </trkpt>
      <trkpt lat="50.14282" lon="3.68351">
        <ele>166.93</ele>
        <time>2020-05-28T13:46:45Z</time>
      </trkpt>
      <trkpt lat="50.14285" lon="3.68397">
        <ele>167.41</ele>
        <time>2020-05-28T13:46:57Z</time>
      </trkpt>
      <trkpt lat="50.14289" lon="3.6845">
        <ele>167.89</ele>
        <time>2020-05-28T13:47:10Z</time>
      </trkpt>
      <trkpt lat="50.14299" lon="3.68491">
        <ele>167.89</ele>
        <time>2020-05-28T13:47:22Z</time>
      </trkpt>
      <trkpt lat="50.14312" lon="3.68519">
        <ele>166.45</ele>
        <time>2020-05-28T13:47:33Z</time>
      </trkpt>
      <trkpt lat="50.14318" lon="3.68564">
        <ele>166.45</ele>
        <time>2020-05-28T13:47:45Z</time>
      </trkpt>
      <trkpt lat="50.14316" lon="3.68615">
        <ele>165</ele>
        <time>2020-05-28T13:47:55Z</time>
      </trkpt>
      <trkpt lat="50.14321" lon="3.6869">
        <ele>162.6</ele>
        <time>2020-05-28T13:48:07Z</time>
      </trkpt>
      <trkpt lat="50.14323" lon="3.68738">
        <ele>161.64</ele>
        <time>2020-05-28T13:48:17Z</time>
      </trkpt>
      <trkpt lat="50.14326" lon="3.68767">
        <ele>161.16</ele>
        <time>2020-05-28T13:48:23Z</time>
      </trkpt>
      <trkpt lat="50.14326" lon="3.68782">
        <ele>161.16</ele>
        <time>2020-05-28T13:48:27Z</time>
      </trkpt>
      <trkpt lat="50.14323" lon="3.68807">
        <ele>162.6</ele>
        <time>2020-05-28T13:48:33Z</time>
      </trkpt>
      <trkpt lat="50.14321" lon="3.68836">
        <ele>164.04</ele>
        <time>2020-05-28T13:48:42Z</time>
      </trkpt>
      <trkpt lat="50.14316" lon="3.68883">
        <ele>166.93</ele>
        <time>2020-05-28T13:48:56Z</time>
      </trkpt>
      <trkpt lat="50.143" lon="3.68924">
        <ele>166.93</ele>
        <time>2020-05-28T13:49:09Z</time>
      </trkpt>
      <trkpt lat="50.14299" lon="3.68959">
        <ele>167.89</ele>
        <time>2020-05-28T13:49:18Z</time>
      </trkpt>
      <trkpt lat="50.143" lon="3.68967">
        <ele>167.89</ele>
        <time>2020-05-28T13:49:20Z</time>
      </trkpt>
      <trkpt lat="50.143" lon="3.68971">
        <ele>168.37</ele>
        <time>2020-05-28T13:49:21Z</time>
      </trkpt>
      <trkpt lat="50.14299" lon="3.68974">
        <ele>168.37</ele>
        <time>2020-05-28T13:49:23Z</time>
      </trkpt>
      <trkpt lat="50.14295" lon="3.68979">
        <ele>168.37</ele>
        <time>2020-05-28T13:49:26Z</time>
      </trkpt>
      <trkpt lat="50.14293" lon="3.68978">
        <ele>168.37</ele>
        <time>2020-05-28T13:49:27Z</time>
      </trkpt>
      <trkpt lat="50.14291" lon="3.68977">
        <ele>168.37</ele>
        <time>2020-05-28T13:49:28Z</time>
      </trkpt>
      <trkpt lat="50.1429" lon="3.68974">
        <ele>168.37</ele>
        <time>2020-05-28T13:49:29Z</time>
      </trkpt>
      <trkpt lat="50.14287" lon="3.6897">
        <ele>168.37</ele>
        <time>2020-05-28T13:49:30Z</time>
      </trkpt>
      <trkpt lat="50.14285" lon="3.68965">
        <ele>168.37</ele>
        <time>2020-05-28T13:49:31Z</time>
      </trkpt>
      <trkpt lat="50.14278" lon="3.68958">
        <ele>168.37</ele>
        <time>2020-05-28T13:49:33Z</time>
      </trkpt>
      <trkpt lat="50.14275" lon="3.68955">
        <ele>168.37</ele>
        <time>2020-05-28T13:49:34Z</time>
      </trkpt>
      <trkpt lat="50.14267" lon="3.6895">
        <ele>166.93</ele>
        <time>2020-05-28T13:49:36Z</time>
      </trkpt>
      <trkpt lat="50.14216" lon="3.68916">
        <ele>166.93</ele>
        <time>2020-05-28T13:49:53Z</time>
      </trkpt>
      <trkpt lat="50.1417" lon="3.68877">
        <ele>166.93</ele>
        <time>2020-05-28T13:50:09Z</time>
      </trkpt>
      <trkpt lat="50.14124" lon="3.6884">
        <ele>168.37</ele>
        <time>2020-05-28T13:50:24Z</time>
      </trkpt>
      <trkpt lat="50.1408" lon="3.68809">
        <ele>168.85</ele>
        <time>2020-05-28T13:50:40Z</time>
      </trkpt>
      <trkpt lat="50.14029" lon="3.68778">
        <ele>167.41</ele>
        <time>2020-05-28T13:50:56Z</time>
      </trkpt>
      <trkpt lat="50.14025" lon="3.68776">
        <ele>167.41</ele>
        <time>2020-05-28T13:50:57Z</time>
      </trkpt>
      <trkpt lat="50.13968" lon="3.68741">
        <ele>165.96</ele>
        <time>2020-05-28T13:51:11Z</time>
      </trkpt>
      <trkpt lat="50.13965" lon="3.68736">
        <ele>165.96</ele>
        <time>2020-05-28T13:51:12Z</time>
      </trkpt>
      <trkpt lat="50.13963" lon="3.68729">
        <ele>165.96</ele>
        <time>2020-05-28T13:51:13Z</time>
      </trkpt>
      <trkpt lat="50.13963" lon="3.6872">
        <ele>165.96</ele>
        <time>2020-05-28T13:51:14Z</time>
      </trkpt>
      <trkpt lat="50.13963" lon="3.68715">
        <ele>165.96</ele>
        <time>2020-05-28T13:51:15Z</time>
      </trkpt>
      <trkpt lat="50.13964" lon="3.68708">
        <ele>165.96</ele>
        <time>2020-05-28T13:51:16Z</time>
      </trkpt>
      <trkpt lat="50.13965" lon="3.68695">
        <ele>165.96</ele>
        <time>2020-05-28T13:51:18Z</time>
      </trkpt>
      <trkpt lat="50.13965" lon="3.68688">
        <ele>165.96</ele>
        <time>2020-05-28T13:51:19Z</time>
      </trkpt>
      <trkpt lat="50.13967" lon="3.68601">
        <ele>168.37</ele>
        <time>2020-05-28T13:51:35Z</time>
      </trkpt>
      <trkpt lat="50.1397" lon="3.68517">
        <ele>168.37</ele>
        <time>2020-05-28T13:51:50Z</time>
      </trkpt>
      <trkpt lat="50.13974" lon="3.68426">
        <ele>168.37</ele>
        <time>2020-05-28T13:52:05Z</time>
      </trkpt>
      <trkpt lat="50.13974" lon="3.6842">
        <ele>168.37</ele>
        <time>2020-05-28T13:52:06Z</time>
      </trkpt>
      <trkpt lat="50.13983" lon="3.68325">
        <ele>168.85</ele>
        <time>2020-05-28T13:52:23Z</time>
      </trkpt>
      <trkpt lat="50.14004" lon="3.68223">
        <ele>169.33</ele>
        <time>2020-05-28T13:52:40Z</time>
      </trkpt>
      <trkpt lat="50.14008" lon="3.68207">
        <ele>167.89</ele>
        <time>2020-05-28T13:52:42Z</time>
      </trkpt>
      <trkpt lat="50.14027" lon="3.68094">
        <ele>164.52</ele>
        <time>2020-05-28T13:52:55Z</time>
      </trkpt>
      <trkpt lat="50.14044" lon="3.67968">
        <ele>164.04</ele>
        <time>2020-05-28T13:53:11Z</time>
      </trkpt>
      <trkpt lat="50.1406" lon="3.67894">
        <ele>164.04</ele>
        <time>2020-05-28T13:53:24Z</time>
      </trkpt>
      <trkpt lat="50.1408" lon="3.67797">
        <ele>163.08</ele>
        <time>2020-05-28T13:53:41Z</time>
      </trkpt>
      <trkpt lat="50.14085" lon="3.67776">
        <ele>163.08</ele>
        <time>2020-05-28T13:53:45Z</time>
      </trkpt>
      <trkpt lat="50.14088" lon="3.67771">
        <ele>163.08</ele>
        <time>2020-05-28T13:53:46Z</time>
      </trkpt>
      <trkpt lat="50.1409" lon="3.67769">
        <ele>163.08</ele>
        <time>2020-05-28T13:53:47Z</time>
      </trkpt>
      <trkpt lat="50.14094" lon="3.67766">
        <ele>163.08</ele>
        <time>2020-05-28T13:53:48Z</time>
      </trkpt>
      <trkpt lat="50.14098" lon="3.67762">
        <ele>163.08</ele>
        <time>2020-05-28T13:53:49Z</time>
      </trkpt>
      <trkpt lat="50.14102" lon="3.67759">
        <ele>162.6</ele>
        <time>2020-05-28T13:53:50Z</time>
      </trkpt>
      <trkpt lat="50.14141" lon="3.6772">
        <ele>161.64</ele>
        <time>2020-05-28T13:54:00Z</time>
      </trkpt>
      <trkpt lat="50.14167" lon="3.67694">
        <ele>160.68</ele>
        <time>2020-05-28T13:54:09Z</time>
      </trkpt>
      <trkpt lat="50.14179" lon="3.67679">
        <ele>160.2</ele>
        <time>2020-05-28T13:54:13Z</time>
      </trkpt>
      <trkpt lat="50.14221" lon="3.67629">
        <ele>160.2</ele>
        <time>2020-05-28T13:54:28Z</time>
      </trkpt>
      <trkpt lat="50.14242" lon="3.67643">
        <ele>160.2</ele>
        <time>2020-05-28T13:54:35Z</time>
      </trkpt>
      <trkpt lat="50.14241" lon="3.67702">
        <ele>160.2</ele>
        <time>2020-05-28T13:54:46Z</time>
      </trkpt>
      <trkpt lat="50.14244" lon="3.67749">
        <ele>161.64</ele>
        <time>2020-05-28T13:54:57Z</time>
      </trkpt>
      <trkpt lat="50.14245" lon="3.67766">
        <ele>161.64</ele>
        <time>2020-05-28T13:55:07Z</time>
      </trkpt>
      <trkpt lat="50.14245" lon="3.67767">
        <ele>161.64</ele>
        <time>2020-05-28T13:55:08Z</time>
      </trkpt>
      <trkpt lat="50.14248" lon="3.67782">
        <ele>161.64</ele>
        <time>2020-05-28T13:55:14Z</time>
      </trkpt>
      <trkpt lat="50.1425" lon="3.67786">
        <ele>162.12</ele>
        <time>2020-05-28T13:55:16Z</time>
      </trkpt>
      <trkpt lat="50.14252" lon="3.67803">
        <ele>162.12</ele>
        <time>2020-05-28T13:55:21Z</time>
      </trkpt>
      <trkpt lat="50.14253" lon="3.67854">
        <ele>163.08</ele>
        <time>2020-05-28T13:55:34Z</time>
      </trkpt>
      <trkpt lat="50.14257" lon="3.67897">
        <ele>163.56</ele>
        <time>2020-05-28T13:55:46Z</time>
      </trkpt>
      <trkpt lat="50.14259" lon="3.6796">
        <ele>165</ele>
        <time>2020-05-28T13:55:59Z</time>
      </trkpt>
      <trkpt lat="50.14257" lon="3.67997">
        <ele>165</ele>
        <time>2020-05-28T13:56:10Z</time>
      </trkpt>
      <trkpt lat="50.14256" lon="3.68014">
        <ele>165</ele>
        <time>2020-05-28T13:56:15Z</time>
      </trkpt>
      <trkpt lat="50.1426" lon="3.68026">
        <ele>165.48</ele>
        <time>2020-05-28T13:56:19Z</time>
      </trkpt>
      <trkpt lat="50.14268" lon="3.68074">
        <ele>165.48</ele>
        <time>2020-05-28T13:56:32Z</time>
      </trkpt>
      <trkpt lat="50.14269" lon="3.68125">
        <ele>165.48</ele>
        <time>2020-05-28T13:56:43Z</time>
      </trkpt>
      <trkpt lat="50.14269" lon="3.68142">
        <ele>165.48</ele>
        <time>2020-05-28T13:56:48Z</time>
      </trkpt>
      <trkpt lat="50.14271" lon="3.68186">
        <ele>165.48</ele>
        <time>2020-05-28T13:57:01Z</time>
      </trkpt>
      <trkpt lat="50.14275" lon="3.68239">
        <ele>165.96</ele>
        <time>2020-05-28T13:57:15Z</time>
      </trkpt>
      <trkpt lat="50.14278" lon="3.68285">
        <ele>166.45</ele>
        <time>2020-05-28T13:57:27Z</time>
      </trkpt>
      <trkpt lat="50.1428" lon="3.68329">
        <ele>166.93</ele>
        <time>2020-05-28T13:57:37Z</time>
      </trkpt>
      <trkpt lat="50.14282" lon="3.68362">
        <ele>166.93</ele>
        <time>2020-05-28T13:57:46Z</time>
      </trkpt>
      <trkpt lat="50.14284" lon="3.68419">
        <ele>168.37</ele>
        <time>2020-05-28T13:58:00Z</time>
      </trkpt>
      <trkpt lat="50.14297" lon="3.68484">
        <ele>167.89</ele>
        <time>2020-05-28T13:58:14Z</time>
      </trkpt>
      <trkpt lat="50.14313" lon="3.68526">
        <ele>167.89</ele>
        <time>2020-05-28T13:58:25Z</time>
      </trkpt>
      <trkpt lat="50.14317" lon="3.68578">
        <ele>165.96</ele>
        <time>2020-05-28T13:58:36Z</time>
      </trkpt>
      <trkpt lat="50.14318" lon="3.68646">
        <ele>164.04</ele>
        <time>2020-05-28T13:58:47Z</time>
      </trkpt>
      <trkpt lat="50.14319" lon="3.68695">
        <ele>162.12</ele>
        <time>2020-05-28T13:58:56Z</time>
      </trkpt>
      <trkpt lat="50.14321" lon="3.6875">
        <ele>162.12</ele>
        <time>2020-05-28T13:59:08Z</time>
      </trkpt>
      <trkpt lat="50.14322" lon="3.68796">
        <ele>161.64</ele>
        <time>2020-05-28T13:59:19Z</time>
      </trkpt>
      <trkpt lat="50.14321" lon="3.68822">
        <ele>163.56</ele>
        <time>2020-05-28T13:59:27Z</time>
      </trkpt>
      <trkpt lat="50.14317" lon="3.68872">
        <ele>166.93</ele>
        <time>2020-05-28T13:59:41Z</time>
      </trkpt>
      <trkpt lat="50.14302" lon="3.68912">
        <ele>167.89</ele>
        <time>2020-05-28T13:59:54Z</time>
      </trkpt>
      <trkpt lat="50.14297" lon="3.68925">
        <ele>167.89</ele>
        <time>2020-05-28T13:59:58Z</time>
      </trkpt>
      <trkpt lat="50.14298" lon="3.68961">
        <ele>168.37</ele>
        <time>2020-05-28T14:00:08Z</time>
      </trkpt>
      <trkpt lat="50.14281" lon="3.68955">
        <ele>168.37</ele>
        <time>2020-05-28T14:00:15Z</time>
      </trkpt>
      <trkpt lat="50.14269" lon="3.68946">
        <ele>166.93</ele>
        <time>2020-05-28T14:00:18Z</time>
      </trkpt>
      <trkpt lat="50.14211" lon="3.68911">
        <ele>166.45</ele>
        <time>2020-05-28T14:00:33Z</time>
      </trkpt>
      <trkpt lat="50.14177" lon="3.68885">
        <ele>166.45</ele>
        <time>2020-05-28T14:00:46Z</time>
      </trkpt>
      <trkpt lat="50.14166" lon="3.68873">
        <ele>167.89</ele>
        <time>2020-05-28T14:00:52Z</time>
      </trkpt>
      <trkpt lat="50.1413" lon="3.68846">
        <ele>168.37</ele>
        <time>2020-05-28T14:01:07Z</time>
      </trkpt>
      <trkpt lat="50.14086" lon="3.68813">
        <ele>169.33</ele>
        <time>2020-05-28T14:01:26Z</time>
      </trkpt>
      <trkpt lat="50.14044" lon="3.68788">
        <ele>168.37</ele>
        <time>2020-05-28T14:01:39Z</time>
      </trkpt>
      <trkpt lat="50.1399" lon="3.68755">
        <ele>167.41</ele>
        <time>2020-05-28T14:01:53Z</time>
      </trkpt>
      <trkpt lat="50.13971" lon="3.68744">
        <ele>166.93</ele>
        <time>2020-05-28T14:01:58Z</time>
      </trkpt>
      <trkpt lat="50.13967" lon="3.68741">
        <ele>166.93</ele>
        <time>2020-05-28T14:01:59Z</time>
      </trkpt>
      <trkpt lat="50.13963" lon="3.68738">
        <ele>166.45</ele>
        <time>2020-05-28T14:02:00Z</time>
      </trkpt>
      <trkpt lat="50.13958" lon="3.68735">
        <ele>165.96</ele>
        <time>2020-05-28T14:02:01Z</time>
      </trkpt>
      <trkpt lat="50.13953" lon="3.68731">
        <ele>165.96</ele>
        <time>2020-05-28T14:02:02Z</time>
      </trkpt>
      <trkpt lat="50.13948" lon="3.68727">
        <ele>165.96</ele>
        <time>2020-05-28T14:02:03Z</time>
      </trkpt>
      <trkpt lat="50.13875" lon="3.68687">
        <ele>162.12</ele>
        <time>2020-05-28T14:02:16Z</time>
      </trkpt>
      <trkpt lat="50.13804" lon="3.68658">
        <ele>161.16</ele>
        <time>2020-05-28T14:02:28Z</time>
      </trkpt>
      <trkpt lat="50.13798" lon="3.68656">
        <ele>161.16</ele>
        <time>2020-05-28T14:02:29Z</time>
      </trkpt>
      <trkpt lat="50.13728" lon="3.68623">
        <ele>161.16</ele>
        <time>2020-05-28T14:02:42Z</time>
      </trkpt>
      <trkpt lat="50.13652" lon="3.68581">
        <ele>162.6</ele>
        <time>2020-05-28T14:02:56Z</time>
      </trkpt>
      <trkpt lat="50.13627" lon="3.68568">
        <ele>163.56</ele>
        <time>2020-05-28T14:03:03Z</time>
      </trkpt>
      <trkpt lat="50.13603" lon="3.68554">
        <ele>165</ele>
        <time>2020-05-28T14:03:09Z</time>
      </trkpt>
      <trkpt lat="50.13599" lon="3.6855">
        <ele>165</ele>
        <time>2020-05-28T14:03:10Z</time>
      </trkpt>
      <trkpt lat="50.13587" lon="3.68537">
        <ele>164.52</ele>
        <time>2020-05-28T14:03:13Z</time>
      </trkpt>
      <trkpt lat="50.13578" lon="3.68526">
        <ele>163.56</ele>
        <time>2020-05-28T14:03:15Z</time>
      </trkpt>
      <trkpt lat="50.13516" lon="3.68453">
        <ele>160.2</ele>
        <time>2020-05-28T14:03:26Z</time>
      </trkpt>
      <trkpt lat="50.1344" lon="3.68399">
        <ele>158.75</ele>
        <time>2020-05-28T14:03:39Z</time>
      </trkpt>
      <trkpt lat="50.1339" lon="3.68375">
        <ele>158.27</ele>
        <time>2020-05-28T14:03:52Z</time>
      </trkpt>
      <trkpt lat="50.13381" lon="3.6837">
        <ele>158.27</ele>
        <time>2020-05-28T14:03:57Z</time>
      </trkpt>
      <trkpt lat="50.13366" lon="3.68362">
        <ele>158.27</ele>
        <time>2020-05-28T14:04:02Z</time>
      </trkpt>
      <trkpt lat="50.13362" lon="3.6836">
        <ele>158.27</ele>
        <time>2020-05-28T14:04:03Z</time>
      </trkpt>
      <trkpt lat="50.1335" lon="3.68354">
        <ele>158.27</ele>
        <time>2020-05-28T14:04:06Z</time>
      </trkpt>
      <trkpt lat="50.13305" lon="3.68329">
        <ele>158.27</ele>
        <time>2020-05-28T14:04:20Z</time>
      </trkpt>
      <trkpt lat="50.13282" lon="3.68311">
        <ele>158.27</ele>
        <time>2020-05-28T14:04:27Z</time>
      </trkpt>
      <trkpt lat="50.13239" lon="3.68265">
        <ele>157.79</ele>
        <time>2020-05-28T14:04:42Z</time>
      </trkpt>
      <trkpt lat="50.13218" lon="3.68211">
        <ele>157.79</ele>
        <time>2020-05-28T14:04:53Z</time>
      </trkpt>
      <trkpt lat="50.13201" lon="3.68182">
        <ele>157.79</ele>
        <time>2020-05-28T14:05:02Z</time>
      </trkpt>
      <trkpt lat="50.13198" lon="3.68183">
        <ele>157.79</ele>
        <time>2020-05-28T14:05:03Z</time>
      </trkpt>
      <trkpt lat="50.13196" lon="3.68185">
        <ele>157.31</ele>
        <time>2020-05-28T14:05:04Z</time>
      </trkpt>
      <trkpt lat="50.13192" lon="3.68189">
        <ele>157.31</ele>
        <time>2020-05-28T14:05:05Z</time>
      </trkpt>
      <trkpt lat="50.13189" lon="3.68192">
        <ele>157.31</ele>
        <time>2020-05-28T14:05:06Z</time>
      </trkpt>
      <trkpt lat="50.13141" lon="3.68237">
        <ele>153.95</ele>
        <time>2020-05-28T14:05:16Z</time>
      </trkpt>
      <trkpt lat="50.13088" lon="3.68269">
        <ele>151.06</ele>
        <time>2020-05-28T14:05:26Z</time>
      </trkpt>
      <trkpt lat="50.13028" lon="3.68291">
        <ele>147.7</ele>
        <time>2020-05-28T14:05:36Z</time>
      </trkpt>
      <trkpt lat="50.1299" lon="3.683">
        <ele>144.82</ele>
        <time>2020-05-28T14:05:45Z</time>
      </trkpt>
      <trkpt lat="50.12969" lon="3.68286">
        <ele>144.34</ele>
        <time>2020-05-28T14:05:53Z</time>
      </trkpt>
      <trkpt lat="50.12965" lon="3.6829">
        <ele>144.82</ele>
        <time>2020-05-28T14:05:54Z</time>
      </trkpt>
      <trkpt lat="50.12962" lon="3.68296">
        <ele>144.34</ele>
        <time>2020-05-28T14:05:55Z</time>
      </trkpt>
      <trkpt lat="50.12959" lon="3.68301">
        <ele>144.82</ele>
        <time>2020-05-28T14:05:56Z</time>
      </trkpt>
      <trkpt lat="50.12955" lon="3.68306">
        <ele>144.82</ele>
        <time>2020-05-28T14:05:57Z</time>
      </trkpt>
      <trkpt lat="50.12951" lon="3.6831">
        <ele>144.82</ele>
        <time>2020-05-28T14:05:58Z</time>
      </trkpt>
      <trkpt lat="50.12945" lon="3.68312">
        <ele>144.82</ele>
        <time>2020-05-28T14:05:59Z</time>
      </trkpt>
      <trkpt lat="50.1294" lon="3.68314">
        <ele>144.82</ele>
        <time>2020-05-28T14:06:00Z</time>
      </trkpt>
      <trkpt lat="50.12882" lon="3.68355">
        <ele>147.7</ele>
        <time>2020-05-28T14:06:13Z</time>
      </trkpt>
      <trkpt lat="50.12859" lon="3.6839">
        <ele>146.26</ele>
        <time>2020-05-28T14:06:19Z</time>
      </trkpt>
      <trkpt lat="50.12834" lon="3.68466">
        <ele>142.41</ele>
        <time>2020-05-28T14:06:28Z</time>
      </trkpt>
      <trkpt lat="50.12819" lon="3.68533">
        <ele>139.05</ele>
        <time>2020-05-28T14:06:35Z</time>
      </trkpt>
      <trkpt lat="50.12806" lon="3.68588">
        <ele>137.61</ele>
        <time>2020-05-28T14:06:41Z</time>
      </trkpt>
      <trkpt lat="50.12803" lon="3.68594">
        <ele>137.61</ele>
        <time>2020-05-28T14:06:42Z</time>
      </trkpt>
      <trkpt lat="50.12796" lon="3.68609">
        <ele>136.64</ele>
        <time>2020-05-28T14:06:45Z</time>
      </trkpt>
      <trkpt lat="50.12793" lon="3.68613">
        <ele>136.64</ele>
        <time>2020-05-28T14:06:46Z</time>
      </trkpt>
      <trkpt lat="50.12788" lon="3.68614">
        <ele>136.64</ele>
        <time>2020-05-28T14:06:47Z</time>
      </trkpt>
      <trkpt lat="50.12784" lon="3.68611">
        <ele>136.64</ele>
        <time>2020-05-28T14:06:48Z</time>
      </trkpt>
      <trkpt lat="50.12781" lon="3.68606">
        <ele>136.64</ele>
        <time>2020-05-28T14:06:49Z</time>
      </trkpt>
      <trkpt lat="50.12778" lon="3.68599">
        <ele>136.64</ele>
        <time>2020-05-28T14:06:50Z</time>
      </trkpt>
      <trkpt lat="50.12767" lon="3.68576">
        <ele>136.64</ele>
        <time>2020-05-28T14:06:54Z</time>
      </trkpt>
      <trkpt lat="50.12764" lon="3.6857">
        <ele>136.64</ele>
        <time>2020-05-28T14:06:55Z</time>
      </trkpt>
      <trkpt lat="50.12735" lon="3.68517">
        <ele>136.16</ele>
        <time>2020-05-28T14:07:05Z</time>
      </trkpt>
      <trkpt lat="50.12734" lon="3.68511">
        <ele>136.16</ele>
        <time>2020-05-28T14:07:06Z</time>
      </trkpt>
      <trkpt lat="50.12734" lon="3.68503">
        <ele>136.16</ele>
        <time>2020-05-28T14:07:07Z</time>
      </trkpt>
      <trkpt lat="50.12736" lon="3.68498">
        <ele>136.16</ele>
        <time>2020-05-28T14:07:08Z</time>
      </trkpt>
      <trkpt lat="50.12739" lon="3.68494">
        <ele>136.16</ele>
        <time>2020-05-28T14:07:09Z</time>
      </trkpt>
      <trkpt lat="50.12742" lon="3.68491">
        <ele>136.16</ele>
        <time>2020-05-28T14:07:10Z</time>
      </trkpt>
      <trkpt lat="50.12746" lon="3.68488">
        <ele>136.16</ele>
        <time>2020-05-28T14:07:11Z</time>
      </trkpt>
      <trkpt lat="50.12784" lon="3.68459">
        <ele>136.16</ele>
        <time>2020-05-28T14:07:24Z</time>
      </trkpt>
      <trkpt lat="50.12797" lon="3.68449">
        <ele>136.16</ele>
        <time>2020-05-28T14:07:30Z</time>
      </trkpt>
      <trkpt lat="50.12799" lon="3.68447">
        <ele>137.61</ele>
        <time>2020-05-28T14:07:31Z</time>
      </trkpt>
      <trkpt lat="50.12801" lon="3.68443">
        <ele>137.61</ele>
        <time>2020-05-28T14:07:32Z</time>
      </trkpt>
      <trkpt lat="50.12802" lon="3.68438">
        <ele>137.61</ele>
        <time>2020-05-28T14:07:33Z</time>
      </trkpt>
      <trkpt lat="50.12802" lon="3.68434">
        <ele>138.09</ele>
        <time>2020-05-28T14:07:34Z</time>
      </trkpt>
      <trkpt lat="50.128" lon="3.68429">
        <ele>138.09</ele>
        <time>2020-05-28T14:07:35Z</time>
      </trkpt>
      <trkpt lat="50.12798" lon="3.68425">
        <ele>138.09</ele>
        <time>2020-05-28T14:07:36Z</time>
      </trkpt>
      <trkpt lat="50.12796" lon="3.68421">
        <ele>138.09</ele>
        <time>2020-05-28T14:07:37Z</time>
      </trkpt>
      <trkpt lat="50.12767" lon="3.6834">
        <ele>137.61</ele>
        <time>2020-05-28T14:07:52Z</time>
      </trkpt>
      <trkpt lat="50.12749" lon="3.68291">
        <ele>137.61</ele>
        <time>2020-05-28T14:08:01Z</time>
      </trkpt>
      <trkpt lat="50.12746" lon="3.68287">
        <ele>137.61</ele>
        <time>2020-05-28T14:08:02Z</time>
      </trkpt>
      <trkpt lat="50.12743" lon="3.68283">
        <ele>137.61</ele>
        <time>2020-05-28T14:08:03Z</time>
      </trkpt>
      <trkpt lat="50.12741" lon="3.68279">
        <ele>137.61</ele>
        <time>2020-05-28T14:08:04Z</time>
      </trkpt>
      <trkpt lat="50.12739" lon="3.68273">
        <ele>137.61</ele>
        <time>2020-05-28T14:08:05Z</time>
      </trkpt>
      <trkpt lat="50.12738" lon="3.68268">
        <ele>137.61</ele>
        <time>2020-05-28T14:08:06Z</time>
      </trkpt>
      <trkpt lat="50.12736" lon="3.68264">
        <ele>137.61</ele>
        <time>2020-05-28T14:08:07Z</time>
      </trkpt>
      <trkpt lat="50.12735" lon="3.68259">
        <ele>137.61</ele>
        <time>2020-05-28T14:08:08Z</time>
      </trkpt>
      <trkpt lat="50.12733" lon="3.68254">
        <ele>137.61</ele>
        <time>2020-05-28T14:08:09Z</time>
      </trkpt>
      <trkpt lat="50.12732" lon="3.68249">
        <ele>137.61</ele>
        <time>2020-05-28T14:08:10Z</time>
      </trkpt>
      <trkpt lat="50.12712" lon="3.68187">
        <ele>136.64</ele>
        <time>2020-05-28T14:08:22Z</time>
      </trkpt>
      <trkpt lat="50.1271" lon="3.68182">
        <ele>136.64</ele>
        <time>2020-05-28T14:08:23Z</time>
      </trkpt>
      <trkpt lat="50.12676" lon="3.68113">
        <ele>136.16</ele>
        <time>2020-05-28T14:08:37Z</time>
      </trkpt>
      <trkpt lat="50.12663" lon="3.68085">
        <ele>136.16</ele>
        <time>2020-05-28T14:08:42Z</time>
      </trkpt>
      <trkpt lat="50.12655" lon="3.68063">
        <ele>136.16</ele>
        <time>2020-05-28T14:08:46Z</time>
      </trkpt>
      <trkpt lat="50.12653" lon="3.68058">
        <ele>136.16</ele>
        <time>2020-05-28T14:08:47Z</time>
      </trkpt>
      <trkpt lat="50.12619" lon="3.67991">
        <ele>135.68</ele>
        <time>2020-05-28T14:09:01Z</time>
      </trkpt>
      <trkpt lat="50.12593" lon="3.6794">
        <ele>135.68</ele>
        <time>2020-05-28T14:09:13Z</time>
      </trkpt>
      <trkpt lat="50.12569" lon="3.67903">
        <ele>135.68</ele>
        <time>2020-05-28T14:09:24Z</time>
      </trkpt>
      <trkpt lat="50.12539" lon="3.67879">
        <ele>135.68</ele>
        <time>2020-05-28T14:09:35Z</time>
      </trkpt>
      <trkpt lat="50.12536" lon="3.67878">
        <ele>135.68</ele>
        <time>2020-05-28T14:09:36Z</time>
      </trkpt>
      <trkpt lat="50.12532" lon="3.67877">
        <ele>135.68</ele>
        <time>2020-05-28T14:09:37Z</time>
      </trkpt>
      <trkpt lat="50.12529" lon="3.67875">
        <ele>135.68</ele>
        <time>2020-05-28T14:09:38Z</time>
      </trkpt>
      <trkpt lat="50.12527" lon="3.67871">
        <ele>135.68</ele>
        <time>2020-05-28T14:09:39Z</time>
      </trkpt>
      <trkpt lat="50.12525" lon="3.67866">
        <ele>135.68</ele>
        <time>2020-05-28T14:09:40Z</time>
      </trkpt>
      <trkpt lat="50.12523" lon="3.67862">
        <ele>135.68</ele>
        <time>2020-05-28T14:09:41Z</time>
      </trkpt>
      <trkpt lat="50.1252" lon="3.67858">
        <ele>135.68</ele>
        <time>2020-05-28T14:09:42Z</time>
      </trkpt>
      <trkpt lat="50.12516" lon="3.67855">
        <ele>135.68</ele>
        <time>2020-05-28T14:09:43Z</time>
      </trkpt>
      <trkpt lat="50.12493" lon="3.67828">
        <ele>135.68</ele>
        <time>2020-05-28T14:09:53Z</time>
      </trkpt>
      <trkpt lat="50.12491" lon="3.67824">
        <ele>135.68</ele>
        <time>2020-05-28T14:09:54Z</time>
      </trkpt>
      <trkpt lat="50.12488" lon="3.67821">
        <ele>135.68</ele>
        <time>2020-05-28T14:09:55Z</time>
      </trkpt>
      <trkpt lat="50.12486" lon="3.67819">
        <ele>135.68</ele>
        <time>2020-05-28T14:09:56Z</time>
      </trkpt>
      <trkpt lat="50.12484" lon="3.67815">
        <ele>135.68</ele>
        <time>2020-05-28T14:09:57Z</time>
      </trkpt>
      <trkpt lat="50.12482" lon="3.67813">
        <ele>135.68</ele>
        <time>2020-05-28T14:09:58Z</time>
      </trkpt>
      <trkpt lat="50.12479" lon="3.67813">
        <ele>135.68</ele>
        <time>2020-05-28T14:09:59Z</time>
      </trkpt>
      <trkpt lat="50.12477" lon="3.67813">
        <ele>135.68</ele>
        <time>2020-05-28T14:10:00Z</time>
      </trkpt>
      <trkpt lat="50.12474" lon="3.67814">
        <ele>135.2</ele>
        <time>2020-05-28T14:10:01Z</time>
      </trkpt>
      <trkpt lat="50.1247" lon="3.67814">
        <ele>135.2</ele>
        <time>2020-05-28T14:10:02Z</time>
      </trkpt>
      <trkpt lat="50.12457" lon="3.67816">
        <ele>134.72</ele>
        <time>2020-05-28T14:10:11Z</time>
      </trkpt>
    </trkseg>
  </trk>
</gpx>